Time;durP1;ratioP1;P1;durP2;ratioP2;P2;SDS_P1;SDS_P2;PMS_P1;PMS_P2;Temp;Humidity;BMP_temperature;BMP_pressure;BME280_temperature;BME280_humidity;BME280_pressure;Samples;Min_cycle;Max_cycle;Signal;HPM_P1;HPM_P2
2023/04/29 00:02:18;;;;;;;83.38;33.60;;;11.20;99.90;;;;;;5043299;28;20037;-89
2023/04/29 00:04:44;;;;;;;74.32;33.75;;;11.20;99.90;;;;;;5054208;28;20545;-89
2023/04/29 00:07:14;;;;;;;78.05;33.72;;;11.20;99.90;;;;;;5056900;28;20051;-89
2023/04/29 00:09:40;;;;;;;101.38;37.75;;;11.10;99.90;;;;;;5063738;28;20043;-89
2023/04/29 00:12:05;;;;;;;105.75;39.38;;;11.10;99.90;;;;;;5053335;28;20117;-89
2023/04/29 00:14:31;;;;;;;100.00;37.42;;;11.20;99.90;;;;;;5070041;28;20019;-87
2023/04/29 00:16:57;;;;;;;81.30;33.83;;;11.10;99.90;;;;;;5073074;28;20094;-89
2023/04/29 00:19:23;;;;;;;103.63;37.25;;;11.20;99.90;;;;;;5056309;28;20102;-89
2023/04/29 00:21:48;;;;;;;86.53;33.92;;;11.20;99.90;;;;;;5069981;28;20026;-89
2023/04/29 00:24:14;;;;;;;91.00;36.25;;;11.10;99.90;;;;;;5050211;28;20028;-89
2023/04/29 00:26:40;;;;;;;67.20;32.03;;;11.20;99.90;;;;;;5055786;28;20518;-90
2023/04/29 00:29:05;;;;;;;75.00;32.85;;;11.20;99.90;;;;;;5053076;28;20032;-89
2023/04/29 00:31:31;;;;;;;85.55;34.47;;;11.20;99.90;;;;;;5052478;28;20028;-89
2023/04/29 00:33:57;;;;;;;80.80;34.20;;;11.10;99.90;;;;;;5056400;28;20025;-89
2023/04/29 00:36:23;;;;;;;64.80;31.23;;;11.00;99.90;;;;;;5050682;28;20040;-89
2023/04/29 00:38:49;;;;;;;72.13;31.75;;;11.00;99.90;;;;;;5053216;28;20507;-89
2023/04/29 00:41:15;;;;;;;84.07;33.67;;;10.80;99.90;;;;;;5049304;28;20029;-90
2023/04/29 00:43:41;;;;;;;72.32;32.03;;;10.70;99.90;;;;;;5038790;28;20025;-89
2023/04/29 00:46:07;;;;;;;62.65;29.08;;;10.60;99.90;;;;;;5057611;28;20074;-89
2023/04/29 00:48:33;;;;;;;61.95;28.70;;;10.60;99.90;;;;;;5056499;28;20051;-90
2023/04/29 00:50:59;;;;;;;79.43;29.63;;;10.40;99.90;;;;;;5065512;28;20384;-87
2023/04/29 00:53:25;;;;;;;82.88;31.27;;;10.20;99.90;;;;;;5056570;28;20035;-89
2023/04/29 00:55:58;;;;;;;82.70;32.50;;;10.10;99.90;;;;;;5040413;28;20119;-90
2023/04/29 00:58:31;;;;;;;70.95;31.02;;;10.10;99.90;;;;;;5043815;28;20389;-89
2023/04/29 01:01:05;;;;;;;70.53;29.52;;;10.10;99.90;;;;;;5052815;28;20021;-89
2023/04/29 01:03:31;;;;;;;76.60;30.38;;;10.10;99.90;;;;;;5052138;28;20654;-89
2023/04/29 01:06:16;;;;;;;83.82;34.25;;;9.90;99.90;;;;;;5052671;28;20017;-88
2023/04/29 01:09:20;;;;;;;67.80;29.17;;;9.80;99.90;;;;;;5071441;28;20036;-89
2023/04/29 01:12:03;;;;;;;67.32;30.20;;;9.70;99.90;;;;;;5056393;28;20711;-89
2023/04/29 01:14:32;;;;;;;81.07;31.88;;;9.60;99.90;;;;;;5072330;28;20116;-89
2023/04/29 01:17:08;;;;;;;79.10;31.02;;;9.60;99.90;;;;;;5052911;28;20055;-88
2023/04/29 01:19:55;;;;;;;74.82;30.35;;;9.50;99.90;;;;;;5047422;28;20029;-89
2023/04/29 01:22:22;;;;;;;97.22;31.20;;;9.40;99.90;;;;;;5079289;28;20028;-88
2023/04/29 01:24:48;;;;;;;60.53;27.38;;;9.30;99.90;;;;;;5048193;28;20124;-88
2023/04/29 01:27:35;;;;;;;77.50;30.35;;;9.20;99.90;;;;;;5073929;28;20020;-89
2023/04/29 01:30:16;;;;;;;65.65;28.50;;;9.20;99.90;;;;;;5041631;28;20029;-89
2023/04/29 01:33:16;;;;;;;64.10;27.52;;;9.20;99.90;;;;;;5059055;28;20025;-89
2023/04/29 01:36:06;;;;;;;79.85;29.85;;;9.10;99.90;;;;;;5059244;28;20028;-88
2023/04/29 01:38:57;;;;;;;63.90;26.58;;;9.20;99.90;;;;;;5056055;28;20024;-89
2023/04/29 01:41:41;;;;;;;69.10;28.65;;;9.10;99.90;;;;;;5047731;28;20033;-89
2023/04/29 01:44:20;;;;;;;63.10;26.55;;;9.10;99.90;;;;;;5065898;28;20464;-89
2023/04/29 01:46:50;;;;;;;66.55;27.67;;;8.90;99.90;;;;;;5057084;28;20125;-89
2023/04/29 01:49:24;;;;;;;60.47;26.65;;;8.80;99.90;;;;;;5050674;28;20094;-89
2023/04/29 01:51:50;;;;;;;79.18;28.95;;;8.80;99.90;;;;;;5075715;28;20115;-88
2023/04/29 01:54:16;;;;;;;64.93;26.20;;;8.70;99.90;;;;;;5076199;28;20174;-88
2023/04/29 01:56:43;;;;;;;53.65;24.45;;;8.50;99.90;;;;;;5048319;28;20090;-89
2023/04/29 01:59:30;;;;;;;62.75;25.77;;;8.30;99.90;;;;;;5075665;28;20442;-88
2023/04/29 02:02:31;;;;;;;60.22;25.75;;;8.30;99.90;;;;;;4991075;28;20166;-88
2023/04/29 02:05:06;;;;;;;66.13;27.17;;;8.10;99.90;;;;;;5048565;28;20117;-88
2023/04/29 02:07:32;;;;;;;58.13;24.80;;;8.00;99.90;;;;;;5055872;28;20029;-88
2023/04/29 02:10:16;;;;;;;57.88;25.02;;;8.00;99.90;;;;;;5058369;28;20502;-89
2023/04/29 02:12:45;;;;;;;58.70;25.67;;;7.90;99.90;;;;;;5057800;28;20036;-89
2023/04/29 02:15:11;;;;;;;64.95;27.67;;;7.90;99.90;;;;;;5050059;28;20021;-88
2023/04/29 02:17:36;;;;;;;57.67;24.92;;;8.00;99.90;;;;;;5062220;28;20028;-88
2023/04/29 02:20:28;;;;;;;62.40;25.60;;;8.10;99.90;;;;;;5049403;28;20054;-89
2023/04/29 02:22:56;;;;;;;77.70;28.17;;;8.30;99.90;;;;;;5055040;28;20079;-89
2023/04/29 02:25:21;;;;;;;80.30;29.40;;;8.50;99.90;;;;;;5069276;28;20021;-89
2023/04/29 02:27:47;;;;;;;65.43;27.13;;;8.70;99.90;;;;;;5048367;28;20361;-89
2023/04/29 02:30:13;;;;;;;76.10;29.02;;;8.80;99.90;;;;;;5057289;28;20024;-89
2023/04/29 02:32:40;;;;;;;63.08;26.67;;;8.90;99.90;;;;;;5056326;28;20484;-88
2023/04/29 02:35:07;;;;;;;57.95;25.55;;;9.00;99.90;;;;;;5056377;28;20066;-88
2023/04/29 02:37:33;;;;;;;64.53;27.17;;;9.00;99.90;;;;;;5062864;28;20035;-88
2023/04/29 02:39:59;;;;;;;60.20;26.42;;;9.00;99.90;;;;;;5054444;28;20024;-88
2023/04/29 02:42:24;;;;;;;88.53;32.88;;;9.10;99.90;;;;;;5052746;28;20560;-89
2023/04/29 02:44:50;;;;;;;80.68;30.27;;;9.20;99.90;;;;;;5075987;28;20456;-89
2023/04/29 02:47:16;;;;;;;94.22;32.97;;;9.30;99.90;;;;;;5058736;28;20392;-89
2023/04/29 02:49:41;;;;;;;81.60;32.72;;;9.30;99.90;;;;;;5057850;28;20040;-89
2023/04/29 02:52:07;;;;;;;95.47;33.38;;;9.40;99.90;;;;;;5058846;28;20112;-89
2023/04/29 02:54:35;;;;;;;114.00;35.97;;;9.50;99.90;;;;;;5073296;28;20036;-89
2023/04/29 02:57:01;;;;;;;139.48;37.35;;;9.50;99.90;;;;;;5058028;28;20513;-89
2023/04/29 02:59:27;;;;;;;113.28;38.70;;;9.70;99.90;;;;;;5055496;28;20055;-88
2023/04/29 03:01:53;;;;;;;110.80;37.72;;;9.80;99.90;;;;;;5072331;28;20123;-89
2023/04/29 03:04:19;;;;;;;105.68;35.35;;;9.90;99.90;;;;;;5061016;28;20029;-89
2023/04/29 03:06:45;;;;;;;119.45;39.08;;;10.00;99.90;;;;;;5054926;28;20490;-88
2023/04/29 03:09:12;;;;;;;135.63;40.60;;;10.10;99.90;;;;;;5056080;28;20149;-88
2023/04/29 03:11:38;;;;;;;148.77;41.90;;;10.10;99.90;;;;;;5053729;28;20424;-88
2023/04/29 03:14:04;;;;;;;139.65;40.20;;;10.20;99.90;;;;;;5054348;28;20068;-88
2023/04/29 03:16:30;;;;;;;124.25;39.88;;;10.20;99.90;;;;;;5047273;28;20090;-88
2023/04/29 03:18:59;;;;;;;102.97;37.17;;;10.20;99.90;;;;;;5044210;28;20029;-89
2023/04/29 03:21:26;;;;;;;106.93;37.30;;;10.10;99.90;;;;;;5051999;28;20119;-89
2023/04/29 03:23:52;;;;;;;109.15;36.80;;;10.10;99.90;;;;;;5062449;28;20029;-88
2023/04/29 03:26:24;;;;;;;107.95;36.83;;;10.10;99.90;;;;;;5067610;28;20012;-88
2023/04/29 03:28:50;;;;;;;94.22;33.42;;;10.00;99.90;;;;;;5063298;28;20156;-88
2023/04/29 03:31:16;;;;;;;75.88;30.05;;;9.90;99.90;;;;;;5060724;28;20532;-88
2023/04/29 03:33:42;;;;;;;79.60;31.08;;;9.80;99.90;;;;;;5049876;28;20032;-88
2023/04/29 03:36:09;;;;;;;80.50;29.73;;;9.70;99.90;;;;;;5050583;28;20407;-87
2023/04/29 03:38:38;;;;;;;77.43;28.95;;;9.70;99.90;;;;;;5054085;28;20086;-87
2023/04/29 03:41:04;;;;;;;85.55;32.22;;;9.50;99.90;;;;;;5066667;28;20411;-87
2023/04/29 03:43:30;;;;;;;83.43;29.52;;;9.40;99.90;;;;;;5056945;28;20025;-88
2023/04/29 03:45:56;;;;;;;83.25;30.52;;;9.30;99.90;;;;;;5057072;28;20031;-87
2023/04/29 03:48:23;;;;;;;85.32;30.58;;;9.20;99.90;;;;;;5057314;28;20029;-87
2023/04/29 03:50:50;;;;;;;81.63;30.95;;;9.20;99.90;;;;;;5056023;28;20027;-87
2023/04/29 03:53:17;;;;;;;71.63;30.20;;;9.20;99.90;;;;;;5047367;28;20025;-88
2023/04/29 03:55:43;;;;;;;89.45;30.17;;;9.20;99.90;;;;;;5056643;28;20388;-87
2023/04/29 03:58:09;;;;;;;88.18;30.23;;;9.20;99.90;;;;;;5062767;28;20024;-87
2023/04/29 04:00:35;;;;;;;79.32;30.30;;;9.20;99.90;;;;;;5062173;28;20029;-87
2023/04/29 04:03:05;;;;;;;78.47;28.83;;;9.20;99.90;;;;;;5053557;28;20040;-88
2023/04/29 04:05:30;;;;;;;67.95;27.50;;;9.20;99.90;;;;;;5054201;28;20024;-88
2023/04/29 04:08:03;;;;;;;64.25;26.65;;;9.20;99.90;;;;;;5062418;28;20108;-90
2023/04/29 04:10:50;;;;;;;55.47;25.35;;;9.20;99.90;;;;;;5055585;28;20088;-90
2023/04/29 04:13:31;;;;;;;59.50;24.50;;;9.20;99.90;;;;;;5060232;28;20486;-90
2023/04/29 04:15:57;;;;;;;54.25;24.50;;;9.20;99.90;;;;;;5058336;28;20273;-90
2023/04/29 04:18:23;;;;;;;54.63;25.27;;;9.30;99.90;;;;;;5049893;28;20025;-90
2023/04/29 04:21:26;;;;;;;63.00;26.05;;;9.30;99.90;;;;;;5071221;28;20414;-90
2023/04/29 04:24:02;;;;;;;65.32;25.70;;;9.30;99.90;;;;;;5058412;28;20029;-90
2023/04/29 04:26:29;;;;;;;62.00;25.65;;;9.30;99.90;;;;;;5074893;28;20031;-90
2023/04/29 04:29:04;;;;;;;62.70;26.27;;;9.30;99.90;;;;;;5056792;28;20016;-90
2023/04/29 04:31:52;;;;;;;59.05;25.63;;;9.30;99.90;;;;;;5062800;28;20059;-90
2023/04/29 04:34:19;;;;;;;71.30;26.00;;;9.30;99.90;;;;;;5042355;28;20036;-90
2023/04/29 04:36:47;;;;;;;61.42;25.98;;;9.40;99.90;;;;;;5052022;28;20032;-90
2023/04/29 04:39:13;;;;;;;59.80;25.25;;;9.40;99.90;;;;;;5050798;28;20029;-91
2023/04/29 04:41:38;;;;;;;56.10;23.73;;;9.40;99.90;;;;;;5051285;28;20044;-90
2023/04/29 04:44:05;;;;;;;51.92;23.83;;;9.40;99.90;;;;;;5051638;28;20083;-90
2023/04/29 04:46:41;;;;;;;55.30;25.10;;;9.40;99.90;;;;;;5074905;28;20452;-90
2023/04/29 04:49:17;;;;;;;54.63;23.98;;;9.40;99.90;;;;;;5050591;28;20089;-90
2023/04/29 04:51:51;;;;;;;58.33;25.58;;;9.40;99.90;;;;;;5057703;28;20029;-90
2023/04/29 04:54:16;;;;;;;56.85;23.73;;;9.50;99.90;;;;;;5057692;28;20075;-90
2023/04/29 04:56:42;;;;;;;54.17;23.88;;;9.50;99.90;;;;;;5047714;28;20025;-90
2023/04/29 04:59:08;;;;;;;51.42;24.50;;;9.40;99.90;;;;;;5045937;28;20043;-90
2023/04/29 05:01:36;;;;;;;49.67;23.95;;;9.50;99.90;;;;;;5057247;28;20020;-90
2023/04/29 05:04:02;;;;;;;43.78;23.10;;;9.50;99.90;;;;;;5060716;28;20032;-90
2023/04/29 05:06:29;;;;;;;46.22;23.73;;;9.50;99.90;;;;;;5057750;28;20546;-90
2023/04/29 05:08:55;;;;;;;47.70;23.15;;;9.50;99.90;;;;;;5054922;28;20127;-91
2023/04/29 05:11:22;;;;;;;46.28;23.42;;;9.60;99.90;;;;;;5057401;28;20029;-91
2023/04/29 05:14:07;;;;;;;53.75;25.52;;;9.60;99.90;;;;;;5041508;28;20384;-90
2023/04/29 05:16:32;;;;;;;48.97;23.77;;;9.70;99.90;;;;;;5052034;28;20032;-91
2023/04/29 05:18:58;;;;;;;45.85;22.25;;;9.70;99.90;;;;;;5056973;28;20032;-90
2023/04/29 05:21:28;;;;;;;47.50;23.30;;;9.70;99.90;;;;;;5058456;28;20383;-89
2023/04/29 05:23:54;;;;;;;43.28;22.98;;;9.70;99.90;;;;;;5073997;28;20031;-91
2023/04/29 05:26:20;;;;;;;45.33;22.35;;;9.70;99.90;;;;;;5057428;28;20021;-90
2023/04/29 05:28:46;;;;;;;49.50;23.88;;;9.70;99.90;;;;;;5041473;28;20048;-89
2023/04/29 05:31:13;;;;;;;52.58;24.08;;;9.60;99.90;;;;;;5057751;28;20021;-90
2023/04/29 05:37:20;;;;;;;53.38;24.55;;;9.50;99.90;;;;;;5067366;28;20075;-90
2023/04/29 05:40:07;;;;;;;49.65;22.77;;;9.60;99.90;;;;;;5063136;28;20041;-90
2023/04/29 05:42:33;;;;;;;43.63;23.75;;;9.60;99.90;;;;;;5051956;28;20056;-90
2023/04/29 05:45:00;;;;;;;43.40;23.92;;;9.60;99.90;;;;;;5056300;28;20028;-90
2023/04/29 05:47:26;;;;;;;44.00;23.27;;;9.60;99.90;;;;;;5057507;28;20029;-91
2023/04/29 05:49:51;;;;;;;50.95;25.65;;;9.60;99.90;;;;;;5048395;28;20488;-90
2023/04/29 05:52:17;;;;;;;47.15;24.13;;;9.60;99.90;;;;;;5057900;28;20115;-91
2023/04/29 05:54:46;;;;;;;52.72;26.10;;;9.60;99.90;;;;;;5042821;28;20025;-90
2023/04/29 05:57:12;;;;;;;45.63;24.45;;;9.60;99.90;;;;;;5049709;28;20155;-90
2023/04/29 05:59:39;;;;;;;60.15;27.20;;;9.70;99.90;;;;;;5058154;28;20407;-89
2023/04/29 06:02:05;;;;;;;51.03;25.92;;;9.80;99.90;;;;;;5056865;28;20017;-90
2023/04/29 06:04:32;;;;;;;49.63;25.45;;;9.80;99.90;;;;;;5067665;28;20357;-90
2023/04/29 06:07:17;;;;;;;46.22;23.60;;;9.70;99.90;;;;;;5065550;28;20039;-90
2023/04/29 06:10:09;;;;;;;46.40;23.77;;;9.70;99.90;;;;;;5070697;28;20024;-90
2023/04/29 06:12:35;;;;;;;54.90;26.40;;;9.70;99.90;;;;;;5046239;28;20033;-91
2023/04/29 06:15:01;;;;;;;55.55;27.25;;;9.70;99.90;;;;;;5060377;28;20024;-90
2023/04/29 06:17:28;;;;;;;56.15;27.45;;;9.70;99.90;;;;;;5063983;28;20025;-91
2023/04/29 06:19:55;;;;;;;61.10;28.13;;;9.70;99.90;;;;;;5069099;28;20115;-91
2023/04/29 06:22:22;;;;;;;51.70;26.67;;;9.90;99.90;;;;;;5074059;28;20047;-90
2023/04/29 06:24:51;;;;;;;52.35;25.35;;;10.00;99.90;;;;;;5057193;28;20074;-90
2023/04/29 06:27:25;;;;;;;48.50;25.70;;;10.20;99.90;;;;;;5048276;28;20574;-90
2023/04/29 06:29:51;;;;;;;54.05;26.65;;;10.10;99.90;;;;;;5044461;28;20020;-89
2023/04/29 06:32:17;;;;;;;49.17;24.75;;;10.30;99.90;;;;;;5058886;28;20093;-91
2023/04/29 06:34:45;;;;;;;46.35;24.83;;;10.30;99.90;;;;;;5049038;28;20029;-90
2023/04/29 06:37:37;;;;;;;53.38;24.73;;;10.20;99.90;;;;;;5039314;28;20033;-91
2023/04/29 06:40:16;;;;;;;44.25;22.17;;;10.40;99.90;;;;;;5059998;28;20074;-90
2023/04/29 06:43:01;;;;;;;44.30;22.42;;;10.40;99.90;;;;;;5063999;28;20051;-90
2023/04/29 06:45:45;;;;;;;40.40;22.27;;;10.40;99.90;;;;;;5062178;28;20028;-90
2023/04/29 06:48:37;;;;;;;41.78;20.50;;;10.50;99.90;;;;;;5074813;28;20028;-90
2023/04/29 06:51:03;;;;;;;32.55;21.00;;;10.60;99.90;;;;;;5048173;28;20384;-90
2023/04/29 06:53:29;;;;;;;33.42;20.15;;;10.70;99.90;;;;;;5050288;28;20028;-90
2023/04/29 06:55:55;;;;;;;27.90;17.63;;;10.80;99.90;;;;;;5047923;28;20118;-90
2023/04/29 06:58:21;;;;;;;28.73;17.90;;;10.90;99.90;;;;;;5064714;28;20132;-90
2023/04/29 07:00:48;;;;;;;31.08;18.77;;;11.00;99.90;;;;;;5051566;28;20025;-91
2023/04/29 07:03:15;;;;;;;32.53;16.70;;;11.00;99.90;;;;;;5042260;28;20797;-90
2023/04/29 07:05:41;;;;;;;28.67;17.95;;;11.00;99.90;;;;;;5045616;28;20048;-91
2023/04/29 07:08:09;;;;;;;31.48;16.67;;;11.00;99.90;;;;;;5050001;28;20114;-91
2023/04/29 07:10:34;;;;;;;27.48;16.65;;;11.00;99.90;;;;;;5064076;28;20028;-91
2023/04/29 07:13:00;;;;;;;25.10;17.10;;;11.00;99.90;;;;;;5062701;28;20030;-91
2023/04/29 07:15:27;;;;;;;33.28;17.60;;;11.30;99.90;;;;;;5071775;28;20029;-91
2023/04/29 07:17:53;;;;;;;25.42;17.17;;;11.40;99.90;;;;;;5072254;28;20060;-92
2023/04/29 07:20:19;;;;;;;26.42;15.57;;;11.70;99.90;;;;;;5051018;28;20099;-91
2023/04/29 07:22:45;;;;;;;24.10;15.05;;;12.00;99.90;;;;;;5060861;28;20051;-90
2023/04/29 07:25:11;;;;;;;25.58;15.13;;;12.20;99.90;;;;;;5059871;28;20056;-91
2023/04/29 07:27:37;;;;;;;21.63;15.23;;;12.40;99.90;;;;;;5059602;28;20024;-90
2023/04/29 07:30:04;;;;;;;22.35;14.85;;;12.70;99.90;;;;;;5062126;28;20028;-93
2023/04/29 07:32:31;;;;;;;20.10;14.10;;;12.90;99.90;;;;;;5061261;28;20086;-92
2023/04/29 07:34:57;;;;;;;18.40;13.65;;;13.00;99.90;;;;;;5058813;28;20031;-91
2023/04/29 07:37:24;;;;;;;20.42;13.25;;;13.10;99.90;;;;;;5058910;28;20387;-92
2023/04/29 07:39:50;;;;;;;19.17;13.48;;;13.50;99.90;;;;;;5076243;28;20136;-92
2023/04/29 07:42:16;;;;;;;18.95;12.73;;;13.70;99.90;;;;;;5075944;28;20027;-92
2023/04/29 07:44:44;;;;;;;19.55;12.07;;;13.80;99.90;;;;;;5070473;28;20032;-92
2023/04/29 07:47:13;;;;;;;21.40;12.18;;;13.90;99.90;;;;;;5057896;28;20017;-92
2023/04/29 07:49:40;;;;;;;18.30;11.82;;;14.00;99.90;;;;;;5072752;28;20049;-92
2023/04/29 07:52:08;;;;;;;17.75;11.55;;;13.90;99.90;;;;;;5061589;28;20029;-93
2023/04/29 07:54:35;;;;;;;19.17;12.68;;;14.00;99.90;;;;;;5064884;28;20032;-92
2023/04/29 07:57:03;;;;;;;16.88;11.98;;;13.50;99.90;;;;;;5069685;28;20021;-92
2023/04/29 07:59:30;;;;;;;25.13;12.73;;;13.40;99.90;;;;;;5057522;28;20098;-91
2023/04/29 08:01:56;;;;;;;17.15;12.27;;;13.30;99.90;;;;;;5074456;28;20024;-90
2023/04/29 08:04:22;;;;;;;23.77;13.73;;;13.10;99.90;;;;;;5057910;28;20028;-91
2023/04/29 08:06:56;;;;;;;18.70;12.50;;;13.00;99.90;;;;;;5055694;28;20021;-91
2023/04/29 08:09:22;;;;;;;21.48;12.50;;;12.80;99.90;;;;;;5057326;28;20027;-90
2023/04/29 08:11:48;;;;;;;25.75;12.50;;;12.80;99.90;;;;;;5058681;28;20046;-91
2023/04/29 08:14:13;;;;;;;18.48;13.27;;;12.70;99.90;;;;;;5054490;28;20280;-91
2023/04/29 08:16:39;;;;;;;22.38;14.52;;;12.80;99.90;;;;;;5049519;28;20050;-91
2023/04/29 08:19:05;;;;;;;21.17;13.75;;;12.90;99.90;;;;;;5057408;28;20035;-91
2023/04/29 08:21:31;;;;;;;19.30;12.23;;;12.70;99.90;;;;;;5057843;28;20025;-92
2023/04/29 08:23:57;;;;;;;18.77;13.45;;;12.80;99.90;;;;;;5066616;28;20037;-92
2023/04/29 08:26:23;;;;;;;21.15;12.48;;;12.90;99.90;;;;;;5057532;28;20020;-92
2023/04/29 08:28:49;;;;;;;20.27;12.40;;;13.00;99.90;;;;;;5054384;28;20036;-92
2023/04/29 08:31:20;;;;;;;21.33;13.23;;;13.10;99.90;;;;;;5071177;28;20031;-91
2023/04/29 08:33:46;;;;;;;18.88;12.85;;;13.00;99.90;;;;;;5055431;28;20052;-93
2023/04/29 08:36:18;;;;;;;18.35;12.05;;;12.90;99.90;;;;;;5055757;28;20025;-92
2023/04/29 08:38:43;;;;;;;16.25;12.05;;;13.20;99.90;;;;;;5056403;28;20109;-91
2023/04/29 08:41:10;;;;;;;16.98;10.85;;;13.60;99.90;;;;;;5047756;28;20421;-92
2023/04/29 08:43:36;;;;;;;16.30;11.55;;;14.30;99.90;;;;;;5068043;28;20067;-92
2023/04/29 08:46:03;;;;;;;19.13;11.45;;;14.80;99.90;;;;;;5054275;28;20024;-91
2023/04/29 08:48:30;;;;;;;20.42;11.48;;;14.60;99.90;;;;;;5055361;28;20112;-92
2023/04/29 08:50:57;;;;;;;19.58;12.48;;;14.40;99.90;;;;;;5066356;28;20035;-92
2023/04/29 08:53:24;;;;;;;16.35;11.70;;;14.00;99.90;;;;;;5055328;28;20031;-92
2023/04/29 08:55:51;;;;;;;16.02;11.73;;;13.70;99.90;;;;;;5071467;28;20033;-92
2023/04/29 08:58:20;;;;;;;27.20;12.65;;;13.50;99.90;;;;;;5064754;28;20468;-92
2023/04/29 09:00:47;;;;;;;20.98;12.73;;;13.30;99.90;;;;;;5050620;28;20028;-91
2023/04/29 09:03:28;;;;;;;25.38;14.23;;;13.20;99.90;;;;;;5073479;28;20011;-92
2023/04/29 09:05:55;;;;;;;22.23;15.32;;;12.70;99.90;;;;;;5056137;28;20025;-92
2023/04/29 09:08:23;;;;;;;21.50;15.20;;;12.30;99.90;;;;;;5068301;28;20031;-92
2023/04/29 09:10:51;;;;;;;24.58;14.52;;;11.90;99.90;;;;;;5067874;28;20658;-91
2023/04/29 09:13:23;;;;;;;24.08;15.55;;;11.70;99.90;;;;;;5052257;28;20043;-91
2023/04/29 09:15:49;;;;;;;25.75;15.85;;;11.70;99.90;;;;;;5069346;28;20483;-90
2023/04/29 09:18:44;;;;;;;24.48;15.23;;;11.70;99.90;;;;;;5058820;28;20036;-91
2023/04/29 09:21:17;;;;;;;25.17;15.75;;;11.60;99.90;;;;;;5055203;28;20488;-91
2023/04/29 09:23:44;;;;;;;30.70;16.80;;;11.70;99.90;;;;;;5053957;28;20033;-91
2023/04/29 09:26:10;;;;;;;21.92;14.15;;;11.70;99.90;;;;;;5041448;28;21280;-89
2023/04/29 09:28:36;;;;;;;24.55;16.15;;;11.70;99.90;;;;;;5063954;28;20024;-88
2023/04/29 09:31:06;;;;;;;26.35;15.50;;;11.60;99.90;;;;;;5078366;28;20024;-88
2023/04/29 09:33:50;;;;;;;28.13;16.67;;;11.70;99.90;;;;;;5058660;28;20068;-90
2023/04/29 09:36:39;;;;;;;24.08;15.80;;;11.20;99.90;;;;;;5057113;28;20488;-91
2023/04/29 09:39:11;;;;;;;30.73;15.68;;;11.00;99.90;;;;;;5033408;28;20793;-92
2023/04/29 09:41:52;;;;;;;24.48;14.77;;;10.90;99.90;;;;;;5073491;28;20028;-93
2023/04/29 09:44:23;;;;;;;26.67;14.00;;;11.20;99.90;;;;;;5060400;28;20028;-92
2023/04/29 09:47:03;;;;;;;21.85;13.57;;;11.70;99.90;;;;;;5073290;28;20283;-91
2023/04/29 09:49:38;;;;;;;20.08;12.27;;;12.30;99.90;;;;;;5052836;28;20032;-92
2023/04/29 09:52:06;;;;;;;19.33;11.63;;;13.00;99.90;;;;;;5049130;28;20111;-89
2023/04/29 09:54:37;;;;;;;19.00;10.98;;;13.70;99.90;;;;;;5060733;28;20020;-88
2023/04/29 09:57:06;;;;;;;18.52;11.07;;;14.10;99.90;;;;;;5061232;28;20052;-90
2023/04/29 09:59:37;;;;;;;17.50;11.45;;;14.20;99.90;;;;;;5073766;28;20061;-90
2023/04/29 10:02:24;;;;;;;16.95;10.15;;;14.50;99.90;;;;;;5069946;28;20017;-90
2023/04/29 10:04:56;;;;;;;14.85;9.18;;;14.70;99.90;;;;;;5074665;28;20056;-89
2023/04/29 10:07:22;;;;;;;13.85;9.65;;;15.30;99.90;;;;;;5057380;28;20056;-90
2023/04/29 10:09:47;;;;;;;13.43;9.43;;;15.00;99.90;;;;;;5051618;28;20112;-91
2023/04/29 10:12:18;;;;;;;15.93;10.23;;;14.80;99.90;;;;;;5065653;28;20480;-91
2023/04/29 10:15:11;;;;;;;16.92;9.23;;;14.70;99.90;;;;;;5061111;28;20024;-90
2023/04/29 10:17:48;;;;;;;16.60;9.55;;;14.50;99.90;;;;;;5077473;28;20036;-90
2023/04/29 10:20:18;;;;;;;15.18;8.85;;;14.60;99.90;;;;;;5058383;28;20302;-91
2023/04/29 10:22:47;;;;;;;14.77;8.35;;;14.60;99.90;;;;;;5060388;28;20341;-90
2023/04/29 10:25:20;;;;;;;12.73;8.82;;;14.70;99.90;;;;;;5059211;28;20021;-90
2023/04/29 10:27:47;;;;;;;14.95;8.35;;;14.90;99.90;;;;;;5070206;28;20064;-90
2023/04/29 10:30:17;;;;;;;17.15;8.85;;;14.90;99.90;;;;;;5059704;28;20372;-89
2023/04/29 10:32:45;;;;;;;13.93;8.88;;;14.80;99.90;;;;;;5060329;28;20039;-91
2023/04/29 10:35:13;;;;;;;12.10;8.02;;;15.00;99.90;;;;;;5057615;28;20036;-90
2023/04/29 10:37:40;;;;;;;13.18;7.65;;;15.30;99.90;;;;;;5059356;28;20036;-90
2023/04/29 10:40:10;;;;;;;12.13;7.47;;;15.00;99.90;;;;;;5072847;28;20048;-90
2023/04/29 10:42:43;;;;;;;13.30;8.00;;;14.80;99.90;;;;;;5048144;28;20407;-90
2023/04/29 10:45:30;;;;;;;14.13;8.40;;;14.80;99.90;;;;;;5055860;28;20020;-91
2023/04/29 10:48:05;;;;;;;12.02;8.15;;;15.20;99.90;;;;;;5052676;28;20048;-89
2023/04/29 10:50:32;;;;;;;15.13;6.82;;;15.00;99.90;;;;;;5073040;28;20118;-89
2023/04/29 10:53:01;;;;;;;16.52;7.78;;;14.70;99.90;;;;;;5063128;28;20568;-90
2023/04/29 10:55:27;;;;;;;11.00;7.40;;;14.60;99.90;;;;;;5047608;28;20059;-89
2023/04/29 10:57:55;;;;;;;13.07;7.72;;;14.20;99.90;;;;;;5057232;28;20024;-90
2023/04/29 11:00:25;;;;;;;14.80;8.05;;;14.00;99.90;;;;;;5056950;28;20146;-90
2023/04/29 11:02:53;;;;;;;13.43;8.13;;;14.10;99.90;;;;;;5055999;28;20017;-89
2023/04/29 11:05:32;;;;;;;11.15;6.70;;;14.50;99.90;;;;;;5057018;28;20024;-87
2023/04/29 11:08:11;;;;;;;12.75;6.70;;;15.10;99.90;;;;;;5059232;28;20044;-89
2023/04/29 11:10:40;;;;;;;12.98;7.07;;;15.50;99.90;;;;;;5076418;28;20035;-90
2023/04/29 11:13:27;;;;;;;11.27;7.57;;;16.00;99.90;;;;;;5060251;28;20103;-89
2023/04/29 11:16:06;;;;;;;12.82;8.02;;;16.40;99.90;;;;;;5042592;28;20043;-90
2023/04/29 11:19:05;;;;;;;11.50;7.22;;;16.70;99.90;;;;;;5059693;28;20059;-90
2023/04/29 11:21:33;;;;;;;9.55;6.43;;;17.10;99.90;;;;;;5054055;28;20519;-90
2023/04/29 11:24:00;;;;;;;9.43;7.10;;;18.10;99.90;;;;;;5059468;28;20028;-91
2023/04/29 11:26:26;;;;;;;10.45;7.35;;;17.80;99.90;;;;;;5049362;28;20044;-91
2023/04/29 11:28:52;;;;;;;11.02;7.35;;;17.00;99.90;;;;;;5058747;28;20033;-90
2023/04/29 11:31:18;;;;;;;9.23;6.68;;;16.10;99.90;;;;;;5058460;28;20123;-90
2023/04/29 11:33:46;;;;;;;9.93;6.95;;;15.60;99.90;;;;;;5057548;28;20074;-90
2023/04/29 11:36:13;;;;;;;9.13;6.57;;;15.50;99.90;;;;;;5059660;28;20032;-90
2023/04/29 11:38:42;;;;;;;13.50;7.45;;;15.20;99.90;;;;;;5072545;28;20033;-90
2023/04/29 11:41:10;;;;;;;10.82;7.95;;;14.60;99.90;;;;;;5065154;28;20031;-89
2023/04/29 11:43:38;;;;;;;10.02;7.32;;;14.10;99.90;;;;;;5060834;28;20032;-89
2023/04/29 11:46:14;;;;;;;12.85;7.10;;;14.10;99.90;;;;;;5060655;28;20031;-90
2023/04/29 11:48:49;;;;;;;10.35;7.00;;;14.20;99.90;;;;;;5043689;28;20104;-90
2023/04/29 11:51:17;;;;;;;12.93;7.40;;;14.30;99.90;;;;;;5057569;28;20020;-90
2023/04/29 11:53:44;;;;;;;11.55;7.60;;;14.20;99.90;;;;;;5072089;28;20083;-88
2023/04/29 11:56:10;;;;;;;12.00;7.28;;;14.00;99.90;;;;;;5052573;28;20032;-90
2023/04/29 11:58:36;;;;;;;12.18;7.05;;;13.70;99.90;;;;;;5060502;28;20600;-90
2023/04/29 12:01:03;;;;;;;10.20;6.50;;;13.60;99.90;;;;;;5057028;28;20076;-89
2023/04/29 12:03:32;;;;;;;12.48;7.22;;;13.80;99.90;;;;;;5059691;28;20028;-90
2023/04/29 12:05:58;;;;;;;9.90;7.25;;;14.20;99.90;;;;;;5060440;28;20015;-90
2023/04/29 12:08:25;;;;;;;15.77;7.10;;;14.50;99.90;;;;;;5059574;28;20388;-90
2023/04/29 12:10:53;;;;;;;9.30;6.40;;;14.70;99.90;;;;;;5056838;28;20757;-89
2023/04/29 12:13:21;;;;;;;9.07;6.65;;;15.10;99.90;;;;;;5064988;28;20051;-90
2023/04/29 12:15:49;;;;;;;7.72;5.72;;;15.00;99.90;;;;;;5057199;28;20033;-89
2023/04/29 12:18:16;;;;;;;10.02;6.05;;;14.80;99.90;;;;;;5051979;28;20048;-90
2023/04/29 12:20:44;;;;;;;12.20;6.63;;;14.70;99.90;;;;;;5056692;28;20040;-90
2023/04/29 12:23:11;;;;;;;10.85;7.07;;;14.50;99.90;;;;;;5053535;28;20104;-88
2023/04/29 12:25:36;;;;;;;10.38;6.47;;;13.90;99.90;;;;;;5047080;28;20025;-89
2023/04/29 12:28:06;;;;;;;8.82;5.60;;;13.40;99.90;;;;;;5054425;28;20074;-90
2023/04/29 12:30:34;;;;;;;12.73;6.05;;;13.40;99.90;;;;;;5051396;28;20056;-91
2023/04/29 12:33:01;;;;;;;8.77;5.80;;;13.40;99.90;;;;;;5055002;28;20492;-91
2023/04/29 12:35:27;;;;;;;7.57;5.47;;;13.70;99.90;;;;;;5057366;28;20029;-92
2023/04/29 12:37:52;;;;;;;9.07;5.55;;;13.70;99.90;;;;;;5056099;28;20033;-90
2023/04/29 12:40:19;;;;;;;10.75;5.70;;;13.80;99.90;;;;;;5055410;28;20383;-90
2023/04/29 12:42:45;;;;;;;8.75;5.15;;;13.80;99.90;;;;;;5047490;28;20017;-89
2023/04/29 12:45:31;;;;;;;6.85;4.82;;;13.60;99.90;;;;;;5058760;28;20028;-90
2023/04/29 12:47:58;;;;;;;9.13;5.85;;;13.20;99.90;;;;;;5046327;28;20032;-90
2023/04/29 12:50:33;;;;;;;9.65;4.82;;;13.10;99.90;;;;;;5055783;28;20025;-91
2023/04/29 12:52:59;;;;;;;14.70;6.20;;;13.10;99.90;;;;;;5052993;28;20013;-89